Decoded Metar for LFLU (VALENCE in FRANCE) (IATA:VAF) | Meteo·Mobile Aviation Weather
aviador You're here:

LFLU Decoded Metar

VALENCE in FRANCE
Report Time2019-07-16 10:00:00
UTC Time2019-07-16 10:24:42
Flight Rules vfr VFR
Wind350° at 12 kt
W.Decomp.*RWY 01: 11.3 kt HW 4.1 kt LCW
Visibility9999 m
Phenomena:N/A
Clouds:N/A
Expected CloudBase > 5,600 ft AGL from Temp-Dew spread
CeilingNone
Temp26°C
Dew Point12°C (42% RH)
AAT22.3°C
QNH1015 hPa
Raw Report
METAR LFLU 161000Z AUTO 35012KT 310V020 CAVOK 26/12 Q1015=

Extra information for LFLU:More info

Metar Taf Metar & Taf Last 4 Metars F.Rules Stats Wind Profile Meteogram Temp Stats Airport Information Weather charts Add Link Nearby VenuesMetar ALERT Operation Metar Decoded Social comments